Time;durP1;ratioP1;P1;durP2;ratioP2;P2;SDS_P1;SDS_P2;PMS_P1;PMS_P2;Temp;Humidity;BMP_temperature;BMP_pressure;BME280_temperature;BME280_humidity;BME280_pressure;Samples;Min_cycle;Max_cycle;Signal;HPM_P1;HPM_P2
2022/03/30 00:01:19;;;;;;;6.30;5.68;;;17.20;51.70;;;;;;5131479;27;20231;-69
2022/03/30 00:03:45;;;;;;;6.88;4.90;;;17.20;51.70;;;;;;5132723;27;20193;-70
2022/03/30 00:06:10;;;;;;;6.45;5.22;;;17.20;51.80;;;;;;5132396;28;20177;-69
2022/03/30 00:08:35;;;;;;;5.30;4.80;;;17.20;51.80;;;;;;5131949;28;20176;-73
2022/03/30 00:11:01;;;;;;;7.65;5.35;;;17.10;51.80;;;;;;5132491;27;20611;-71
2022/03/30 00:13:27;;;;;;;7.18;5.82;;;17.10;51.80;;;;;;5131712;28;20230;-73
2022/03/30 00:15:52;;;;;;;7.85;5.63;;;17.10;51.70;;;;;;5132485;28;20252;-73
2022/03/30 00:18:18;;;;;;;6.07;5.32;;;17.10;51.70;;;;;;5132266;28;20234;-70
2022/03/30 00:20:44;;;;;;;9.20;5.40;;;17.10;51.70;;;;;;5131917;28;20176;-73
2022/03/30 00:23:10;;;;;;;7.30;5.70;;;17.10;51.80;;;;;;5132077;28;20172;-71
2022/03/30 00:25:35;;;;;;;7.22;5.45;;;17.10;51.70;;;;;;5132404;28;20176;-71
2022/03/30 00:28:02;;;;;;;6.75;5.28;;;17.10;51.80;;;;;;5131838;28;20253;-71
2022/03/30 00:30:27;;;;;;;6.90;6.07;;;17.10;51.70;;;;;;5131932;28;20259;-70
2022/03/30 00:32:53;;;;;;;6.47;5.47;;;17.10;51.70;;;;;;5132508;27;20192;-69
2022/03/30 00:35:18;;;;;;;5.30;4.80;;;17.10;51.70;;;;;;5135365;27;20651;-68
2022/03/30 00:37:44;;;;;;;5.38;4.88;;;17.10;51.80;;;;;;5136335;27;20277;-70
2022/03/30 00:40:12;;;;;;;6.65;5.38;;;17.10;51.80;;;;;;5135954;27;20198;-70
2022/03/30 00:42:37;;;;;;;5.90;5.00;;;17.10;51.80;;;;;;5135906;27;20173;-71
2022/03/30 00:45:17;;;;;;;6.75;5.25;;;17.10;51.80;;;;;;5136304;27;20493;-69
2022/03/30 00:47:43;;;;;;;6.10;4.80;;;17.10;51.90;;;;;;5136343;27;20169;-69
2022/03/30 00:50:09;;;;;;;7.57;5.57;;;17.00;51.80;;;;;;5135245;27;20186;-70
2022/03/30 00:52:35;;;;;;;6.85;4.90;;;17.00;51.80;;;;;;5136115;27;20173;-71
2022/03/30 00:55:01;;;;;;;7.07;5.05;;;17.00;51.80;;;;;;5136230;27;20233;-71
2022/03/30 00:57:27;;;;;;;5.70;5.20;;;17.00;51.80;;;;;;5134686;27;20232;-70
2022/03/30 00:59:53;;;;;;;8.10;5.15;;;17.00;51.80;;;;;;5136177;27;20180;-70
2022/03/30 01:02:18;;;;;;;7.05;5.10;;;17.00;51.80;;;;;;5117281;27;20172;-69
2022/03/30 01:04:45;;;;;;;7.10;5.30;;;17.00;51.80;;;;;;5116939;27;20218;-70
2022/03/30 01:07:11;;;;;;;5.70;5.20;;;17.00;51.80;;;;;;5135563;27;20180;-71
2022/03/30 01:09:37;;;;;;;5.88;4.75;;;17.00;51.80;;;;;;5135110;27;20279;-71
2022/03/30 01:12:02;;;;;;;5.47;4.97;;;17.00;51.90;;;;;;5117595;27;20280;-73
2022/03/30 01:14:28;;;;;;;5.47;4.97;;;17.00;51.80;;;;;;5116996;27;20172;-73
2022/03/30 01:16:53;;;;;;;7.05;4.82;;;16.90;51.80;;;;;;5135038;27;20236;-71
2022/03/30 01:19:20;;;;;;;6.30;5.18;;;17.00;51.90;;;;;;5135251;27;20179;-72
2022/03/30 01:21:46;;;;;;;7.95;4.90;;;16.90;51.80;;;;;;5135590;27;20172;-71
2022/03/30 01:24:12;;;;;;;6.93;5.10;;;16.90;51.80;;;;;;5134636;27;20267;-72
2022/03/30 01:26:38;;;;;;;5.35;4.63;;;17.00;51.80;;;;;;5135809;27;20536;-73
2022/03/30 01:34:34;;;;;;;6.00;4.82;;;16.90;51.80;;;;;;5135816;27;20594;-69
2022/03/30 01:36:59;;;;;;;8.35;5.18;;;16.90;51.80;;;;;;5135562;27;20212;-69
2022/03/30 01:39:25;;;;;;;5.72;5.03;;;16.90;51.80;;;;;;5134112;27;20376;-69
2022/03/30 01:41:50;;;;;;;6.22;4.57;;;16.90;51.80;;;;;;5135181;27;20186;-69
2022/03/30 01:44:16;;;;;;;5.05;4.55;;;16.90;51.80;;;;;;5134618;27;20546;-71
2022/03/30 01:46:41;;;;;;;5.07;4.57;;;16.90;51.80;;;;;;5133603;27;20175;-72
2022/03/30 01:49:07;;;;;;;5.65;5.05;;;16.90;51.90;;;;;;5134628;27;20183;-71
2022/03/30 01:51:32;;;;;;;5.32;4.72;;;16.90;51.90;;;;;;5134790;27;20168;-70
2022/03/30 01:53:58;;;;;;;5.55;4.55;;;16.90;51.80;;;;;;5134019;27;20534;-71
2022/03/30 01:56:23;;;;;;;6.97;5.30;;;16.90;51.90;;;;;;5134216;27;20269;-72
2022/03/30 01:58:49;;;;;;;6.38;5.07;;;16.80;51.90;;;;;;5134141;27;20269;-70
2022/03/30 02:01:14;;;;;;;6.45;5.28;;;16.80;51.90;;;;;;5134199;27;20161;-69
2022/03/30 02:03:40;;;;;;;6.53;4.68;;;16.80;51.90;;;;;;5134632;27;20259;-71
2022/03/30 02:06:06;;;;;;;5.72;4.35;;;16.80;51.80;;;;;;5133575;27;20186;-70
2022/03/30 02:08:32;;;;;;;6.15;5.38;;;16.80;51.80;;;;;;5134584;27;20511;-72
2022/03/30 02:10:58;;;;;;;7.43;5.43;;;16.80;51.80;;;;;;5134425;27;20263;-72
2022/03/30 02:13:23;;;;;;;6.13;4.90;;;16.80;51.80;;;;;;5133609;27;20171;-72
2022/03/30 02:15:49;;;;;;;7.25;4.72;;;16.80;51.80;;;;;;5134408;27;20267;-73
2022/03/30 02:18:14;;;;;;;6.15;4.25;;;16.80;51.80;;;;;;5133865;27;20254;-72
2022/03/30 02:20:41;;;;;;;6.45;4.97;;;16.80;51.70;;;;;;5133671;27;20866;-73
2022/03/30 02:23:06;;;;;;;7.18;5.40;;;16.80;51.80;;;;;;5135334;27;20180;-72
2022/03/30 02:25:32;;;;;;;5.57;4.63;;;16.80;51.80;;;;;;5135438;27;20172;-73
2022/03/30 02:27:57;;;;;;;4.85;4.30;;;16.80;51.80;;;;;;5134639;27;20196;-70
2022/03/30 02:30:23;;;;;;;6.13;4.80;;;16.70;51.70;;;;;;5135011;27;20176;-70
2022/03/30 02:32:48;;;;;;;6.15;5.10;;;16.80;51.80;;;;;;5135140;27;20175;-70
2022/03/30 02:35:14;;;;;;;6.57;4.95;;;16.70;51.80;;;;;;5134255;27;20203;-69
2022/03/30 02:37:40;;;;;;;6.10;4.80;;;16.70;51.90;;;;;;5135164;27;20216;-69
2022/03/30 02:40:06;;;;;;;6.60;5.22;;;16.70;51.80;;;;;;5134934;27;20176;-69
2022/03/30 02:42:31;;;;;;;5.72;4.97;;;16.70;51.70;;;;;;5115938;27;20189;-70
2022/03/30 02:44:57;;;;;;;5.72;4.57;;;16.70;51.70;;;;;;5134796;27;20169;-70
2022/03/30 02:48:17;;;;;;;5.93;4.60;;;16.70;51.80;;;;;;5134654;27;20627;-69
2022/03/30 02:50:08;;;;;;;5.75;5.10;;;16.70;51.80;;;;;;5133733;27;20183;-71
2022/03/30 02:52:33;;;;;;;5.60;4.90;;;16.70;51.80;;;;;;5134939;27;20172;-70
2022/03/30 02:54:59;;;;;;;6.22;4.50;;;16.70;51.80;;;;;;5134789;27;20217;-71
2022/03/30 02:57:24;;;;;;;6.70;4.70;;;16.70;51.80;;;;;;5132327;27;20250;-71
2022/03/30 02:59:50;;;;;;;8.13;5.53;;;16.60;51.80;;;;;;5134423;27;20653;-71
2022/03/30 03:02:15;;;;;;;6.85;4.50;;;16.60;51.70;;;;;;5133765;27;20176;-69
2022/03/30 03:04:41;;;;;;;5.00;4.47;;;16.60;51.80;;;;;;5134646;27;20168;-70
2022/03/30 03:07:07;;;;;;;7.47;4.38;;;16.60;51.70;;;;;;5134383;27;20185;-69
2022/03/30 03:09:33;;;;;;;5.45;4.95;;;16.60;51.80;;;;;;5133821;27;20172;-73
2022/03/30 03:11:58;;;;;;;7.57;5.13;;;16.60;51.70;;;;;;5134341;27;20179;-72
2022/03/30 03:14:24;;;;;;;6.28;5.32;;;16.60;51.80;;;;;;5134009;27;20533;-72
2022/03/30 03:16:49;;;;;;;7.07;4.80;;;16.60;51.70;;;;;;5133435;27;20235;-72
2022/03/30 03:19:15;;;;;;;5.88;4.82;;;16.60;51.80;;;;;;5134263;27;20172;-71
2022/03/30 03:21:40;;;;;;;6.28;4.72;;;16.60;51.80;;;;;;5134306;27;20180;-73
2022/03/30 03:24:06;;;;;;;6.78;5.22;;;16.60;51.80;;;;;;5133384;27;20183;-72
2022/03/30 03:26:32;;;;;;;4.63;4.22;;;16.50;51.70;;;;;;5134316;27;20172;-72
2022/03/30 03:28:57;;;;;;;6.13;4.95;;;16.60;51.80;;;;;;5134074;27;20176;-72
2022/03/30 03:31:23;;;;;;;5.20;4.28;;;16.50;51.70;;;;;;5133238;27;20171;-69
2022/03/30 03:33:48;;;;;;;4.85;4.43;;;16.50;51.80;;;;;;5133890;27;20183;-69
2022/03/30 03:36:14;;;;;;;6.68;4.85;;;16.50;51.80;;;;;;5133530;27;20639;-69
2022/03/30 03:38:39;;;;;;;6.25;4.75;;;16.50;51.80;;;;;;5133318;27;20177;-71
2022/03/30 03:41:06;;;;;;;5.90;4.60;;;16.50;52.40;;;;;;5133931;27;20229;-69
2022/03/30 03:43:31;;;;;;;6.03;4.57;;;16.50;51.80;;;;;;5133902;27;20179;-70
2022/03/30 03:45:57;;;;;;;6.00;4.85;;;16.50;51.80;;;;;;5133405;27;20168;-72
2022/03/30 03:48:22;;;;;;;6.13;4.85;;;16.50;51.80;;;;;;5133677;27;20172;-70
2022/03/30 03:50:48;;;;;;;5.60;4.80;;;16.50;51.80;;;;;;5133808;27;20190;-72
2022/03/30 03:53:13;;;;;;;8.95;4.90;;;16.50;51.80;;;;;;5132524;27;20650;-71
2022/03/30 03:55:39;;;;;;;8.75;5.22;;;16.50;51.80;;;;;;5133600;27;20180;-70
2022/03/30 03:58:06;;;;;;;5.25;4.70;;;16.50;52.40;;;;;;5133528;27;20305;-70
2022/03/30 04:00:33;;;;;;;5.05;4.55;;;16.50;51.80;;;;;;5132824;27;20558;-69
2022/03/30 04:02:59;;;;;;;6.15;4.55;;;16.50;51.80;;;;;;5133848;27;20195;-69
2022/03/30 04:05:24;;;;;;;6.10;4.50;;;16.50;51.80;;;;;;5133172;28;20612;-70
2022/03/30 04:07:50;;;;;;;5.03;4.53;;;16.50;51.80;;;;;;5133157;27;20207;-71
2022/03/30 04:10:15;;;;;;;5.15;4.35;;;16.40;51.70;;;;;;5133197;28;20524;-73
2022/03/30 04:12:41;;;;;;;5.95;4.53;;;16.50;51.80;;;;;;5132851;28;20179;-73
2022/03/30 04:15:08;;;;;;;6.47;4.85;;;16.50;51.80;;;;;;5133184;28;20631;-72
2022/03/30 04:17:34;;;;;;;6.28;5.18;;;16.40;51.80;;;;;;5133631;28;20219;-70
2022/03/30 04:20:00;;;;;;;7.90;5.50;;;16.40;51.70;;;;;;5132835;28;20169;-71
2022/03/30 04:22:25;;;;;;;5.95;4.50;;;16.40;51.70;;;;;;5133270;28;20531;-73
2022/03/30 04:24:51;;;;;;;5.53;4.72;;;16.40;51.70;;;;;;5133427;27;20168;-72
2022/03/30 04:27:16;;;;;;;5.68;4.57;;;16.40;51.80;;;;;;5132311;28;20506;-71
2022/03/30 04:29:42;;;;;;;7.35;5.07;;;16.40;51.80;;;;;;5133570;28;20168;-70
2022/03/30 04:32:08;;;;;;;5.85;4.40;;;16.40;51.80;;;;;;5133202;28;20172;-69
2022/03/30 04:34:33;;;;;;;5.65;4.32;;;16.40;51.80;;;;;;5132763;28;20172;-71
2022/03/30 04:36:59;;;;;;;5.57;4.22;;;16.40;51.80;;;;;;5133266;28;20200;-68
2022/03/30 04:39:24;;;;;;;6.13;4.97;;;16.40;51.80;;;;;;5132977;28;20700;-69
2022/03/30 04:41:50;;;;;;;7.07;5.20;;;16.40;51.80;;;;;;5132663;28;20201;-70
2022/03/30 04:44:16;;;;;;;4.95;4.45;;;16.30;51.80;;;;;;5133122;28;20169;-70
2022/03/30 04:46:41;;;;;;;6.57;4.45;;;16.30;51.80;;;;;;5133204;28;20359;-72
2022/03/30 04:49:08;;;;;;;6.15;4.90;;;16.30;51.80;;;;;;5132247;28;20173;-70
2022/03/30 04:51:34;;;;;;;5.38;4.60;;;16.30;51.80;;;;;;5114692;28;20175;-70
2022/03/30 04:53:59;;;;;;;6.20;4.80;;;16.30;51.80;;;;;;5133169;28;20168;-71
2022/03/30 04:56:25;;;;;;;5.40;4.63;;;16.30;51.70;;;;;;5131879;28;20219;-71
2022/03/30 04:58:50;;;;;;;7.03;5.05;;;16.30;51.70;;;;;;5133382;28;20259;-71
2022/03/30 05:01:16;;;;;;;5.63;4.63;;;16.30;51.80;;;;;;5132980;27;20169;-70
2022/03/30 05:03:42;;;;;;;5.85;4.57;;;16.30;51.70;;;;;;5132449;28;20189;-69
2022/03/30 05:06:07;;;;;;;5.47;4.30;;;16.30;51.80;;;;;;5132762;28;20180;-71
2022/03/30 05:08:33;;;;;;;6.55;4.60;;;16.30;51.80;;;;;;5133063;28;20612;-71
2022/03/30 05:10:58;;;;;;;6.25;4.82;;;16.30;51.70;;;;;;5132179;28;20180;-72
2022/03/30 05:13:24;;;;;;;4.85;4.43;;;16.20;51.70;;;;;;5132577;28;20168;-73
2022/03/30 05:15:49;;;;;;;6.72;4.95;;;16.30;51.70;;;;;;5132374;28;20215;-72
2022/03/30 05:18:15;;;;;;;6.43;4.47;;;16.20;51.70;;;;;;5132671;28;20216;-72
2022/03/30 05:20:44;;;;;;;5.63;4.57;;;16.30;51.80;;;;;;5134215;27;20268;-71
2022/03/30 05:23:09;;;;;;;5.88;4.63;;;16.30;51.70;;;;;;5135618;27;20180;-71
2022/03/30 05:25:35;;;;;;;5.72;4.63;;;16.20;51.70;;;;;;5136481;27;20260;-72
2022/03/30 05:28:00;;;;;;;8.35;5.30;;;16.20;51.70;;;;;;5136412;27;20176;-70
2022/03/30 05:30:26;;;;;;;4.88;4.40;;;16.20;51.70;;;;;;5135583;27;20714;-68
2022/03/30 05:32:52;;;;;;;6.05;4.57;;;16.20;51.70;;;;;;5136554;27;20203;-69
2022/03/30 05:35:17;;;;;;;4.65;4.18;;;16.20;51.70;;;;;;5136134;27;20207;-68
2022/03/30 05:37:47;;;;;;;6.65;5.40;;;16.20;51.70;;;;;;5135445;27;20193;-69
2022/03/30 05:40:12;;;;;;;4.72;4.05;;;16.20;51.60;;;;;;5135727;27;20172;-69
2022/03/30 05:42:38;;;;;;;6.47;4.90;;;16.20;51.70;;;;;;5136395;27;20168;-70
2022/03/30 05:45:04;;;;;;;5.00;4.05;;;16.20;51.70;;;;;;5135672;27;20172;-70
2022/03/30 05:47:30;;;;;;;7.60;4.90;;;16.20;51.60;;;;;;5135826;27;20635;-70
2022/03/30 05:49:56;;;;;;;5.55;4.50;;;16.20;51.60;;;;;;5136230;27;20176;-70
2022/03/30 05:52:21;;;;;;;5.38;4.90;;;16.20;51.60;;;;;;5134969;27;20276;-69
2022/03/30 05:54:47;;;;;;;5.75;4.30;;;16.20;51.60;;;;;;5135880;27;20169;-71
2022/03/30 05:57:13;;;;;;;5.15;4.15;;;16.20;51.70;;;;;;5135307;27;20694;-68
2022/03/30 05:59:41;;;;;;;5.05;4.20;;;16.20;51.60;;;;;;5135314;27;20176;-69
2022/03/30 06:02:08;;;;;;;6.53;5.00;;;16.20;51.40;;;;;;5135608;27;20210;-69
2022/03/30 06:04:34;;;;;;;5.50;4.38;;;16.20;51.10;;;;;;5135652;27;20175;-69
2022/03/30 06:06:59;;;;;;;5.10;4.28;;;16.30;50.90;;;;;;5135013;27;20168;-70
2022/03/30 06:09:25;;;;;;;5.30;4.15;;;16.40;50.90;;;;;;5135324;27;20610;-72
2022/03/30 06:11:50;;;;;;;4.57;3.83;;;16.50;50.90;;;;;;5135839;27;20239;-72
2022/03/30 06:14:16;;;;;;;6.38;4.55;;;16.60;50.90;;;;;;5134739;27;20192;-71
2022/03/30 06:16:42;;;;;;;5.93;4.00;;;16.70;50.70;;;;;;5135518;27;20221;-72
2022/03/30 06:19:09;;;;;;;6.05;3.90;;;16.80;50.60;;;;;;5134438;27;20172;-70
2022/03/30 06:21:34;;;;;;;5.38;4.22;;;17.00;50.50;;;;;;5117101;27;20252;-71
2022/03/30 06:24:01;;;;;;;4.55;3.97;;;17.10;50.30;;;;;;5116971;27;20248;-72
2022/03/30 06:26:27;;;;;;;4.60;4.13;;;17.20;50.20;;;;;;5099568;27;20210;-71
2022/03/30 06:28:52;;;;;;;6.57;3.80;;;17.40;50.00;;;;;;5135535;27;20176;-69
2022/03/30 06:31:18;;;;;;;5.53;4.13;;;17.60;49.60;;;;;;5134922;27;20212;-70
2022/03/30 06:33:44;;;;;;;5.88;4.22;;;17.80;49.30;;;;;;5134493;27;20192;-69
2022/03/30 06:36:10;;;;;;;3.95;3.50;;;18.00;49.00;;;;;;5134945;27;20215;-68
2022/03/30 06:38:36;;;;;;;3.80;3.42;;;18.20;48.80;;;;;;5135020;27;20212;-69
2022/03/30 06:41:02;;;;;;;4.43;3.75;;;18.40;48.40;;;;;;5134617;27;20165;-69
2022/03/30 06:43:28;;;;;;;3.55;3.13;;;18.50;48.20;;;;;;5134781;27;20177;-69
2022/03/30 06:45:53;;;;;;;4.38;3.58;;;18.50;48.20;;;;;;5135105;27;20187;-70
2022/03/30 06:48:19;;;;;;;3.92;3.47;;;18.50;48.20;;;;;;5134044;27;20183;-69
2022/03/30 06:50:45;;;;;;;3.72;3.22;;;18.40;48.20;;;;;;5134862;27;20168;-71
2022/03/30 06:53:10;;;;;;;3.35;3.03;;;18.50;48.20;;;;;;5134230;27;20180;-69
2022/03/30 06:55:38;;;;;;;4.28;3.67;;;18.50;48.20;;;;;;5134055;27;20206;-70
2022/03/30 06:58:04;;;;;;;4.22;3.15;;;18.50;48.20;;;;;;5134858;27;20265;-69
2022/03/30 07:00:30;;;;;;;4.00;3.30;;;18.60;48.30;;;;;;5134475;27;20584;-69
2022/03/30 07:02:55;;;;;;;4.38;3.33;;;18.70;48.20;;;;;;5133990;27;20183;-69
2022/03/30 07:05:21;;;;;;;4.72;3.20;;;18.60;48.10;;;;;;5134324;27;20180;-68
2022/03/30 07:10:33;;;;;;;4.50;3.33;;;18.50;48.20;;;;;;5133495;27;20731;-72
2022/03/30 07:13:00;;;;;;;6.57;3.78;;;18.40;48.70;;;;;;5134413;27;20654;-73
2022/03/30 07:15:26;;;;;;;6.63;4.05;;;18.40;48.80;;;;;;5133338;27;20228;-70
2022/03/30 07:17:53;;;;;;;5.65;3.85;;;18.40;48.90;;;;;;5134217;27;20592;-69
2022/03/30 07:20:19;;;;;;;4.55;3.38;;;18.50;49.10;;;;;;5133905;27;20177;-73
2022/03/30 07:22:47;;;;;;;5.82;3.50;;;18.50;48.90;;;;;;5133677;27;20184;-74
2022/03/30 07:25:13;;;;;;;4.95;3.42;;;18.60;49.00;;;;;;5133749;27;20267;-73
2022/03/30 07:27:40;;;;;;;6.50;4.20;;;18.70;48.90;;;;;;5134026;27;20205;-71
2022/03/30 07:30:06;;;;;;;6.57;3.25;;;18.70;49.00;;;;;;5133250;27;20184;-73
2022/03/30 07:32:32;;;;;;;6.72;3.35;;;18.80;49.00;;;;;;5134067;27;20279;-71
2022/03/30 07:34:57;;;;;;;6.18;3.22;;;18.80;49.00;;;;;;5133984;27;20322;-73
2022/03/30 07:37:23;;;;;;;5.35;3.40;;;18.80;49.70;;;;;;5133063;27;20204;-70
2022/03/30 07:39:48;;;;;;;4.68;2.88;;;18.70;49.30;;;;;;5134064;27;20195;-70
2022/03/30 07:42:14;;;;;;;12.88;4.05;;;18.70;49.40;;;;;;5133652;27;20310;-71
2022/03/30 07:44:39;;;;;;;4.88;3.05;;;18.70;49.60;;;;;;5132694;27;20224;-71
2022/03/30 07:47:05;;;;;;;6.55;3.10;;;18.70;49.80;;;;;;5133979;27;20631;-71
2022/03/30 07:49:30;;;;;;;4.53;2.78;;;18.70;49.80;;;;;;5133644;27;20177;-70
2022/03/30 07:51:56;;;;;;;4.93;3.05;;;18.80;49.80;;;;;;5133318;27;20176;-72
2022/03/30 07:54:22;;;;;;;4.85;2.83;;;18.80;49.80;;;;;;5133609;27;20182;-72
2022/03/30 07:56:47;;;;;;;4.30;2.75;;;18.90;49.70;;;;;;5133421;27;20216;-72
2022/03/30 07:59:13;;;;;;;4.22;2.75;;;18.90;49.70;;;;;;5132806;27;20180;-71
2022/03/30 08:01:40;;;;;;;4.88;2.80;;;18.90;49.80;;;;;;5133633;27;20176;-70
2022/03/30 08:04:06;;;;;;;4.35;2.60;;;18.90;49.90;;;;;;5133414;27;20179;-72
2022/03/30 08:06:31;;;;;;;6.53;2.85;;;18.90;50.00;;;;;;5133111;27;20173;-73
2022/03/30 08:08:57;;;;;;;3.70;3.00;;;18.80;49.90;;;;;;5133744;27;20172;-74
2022/03/30 08:11:22;;;;;;;5.13;3.42;;;18.70;49.80;;;;;;5133376;27;20221;-75
2022/03/30 08:13:48;;;;;;;7.63;4.03;;;18.60;49.90;;;;;;5132812;28;20216;-75
2022/03/30 08:16:13;;;;;;;9.05;3.90;;;18.50;50.10;;;;;;5133230;28;20209;-74
2022/03/30 08:18:39;;;;;;;8.35;3.53;;;18.50;50.30;;;;;;5132755;28;20211;-73
2022/03/30 08:23:48;;;;;;;7.80;4.30;;;18.50;50.50;;;;;;5133557;28;20611;-74
2022/03/30 08:26:14;;;;;;;5.25;3.90;;;18.50;50.50;;;;;;5132627;28;20172;-76
2022/03/30 08:28:39;;;;;;;8.00;3.67;;;18.50;50.50;;;;;;5133468;28;20187;-73
2022/03/30 08:31:05;;;;;;;6.07;3.50;;;18.60;50.40;;;;;;5133313;28;20192;-74
2022/03/30 08:33:30;;;;;;;6.57;3.50;;;18.50;50.50;;;;;;5132692;28;20176;-71
2022/03/30 08:35:56;;;;;;;6.35;3.40;;;18.50;50.60;;;;;;5133496;28;20557;-72
2022/03/30 08:38:22;;;;;;;5.55;3.80;;;18.50;50.60;;;;;;5133117;28;20208;-72
2022/03/30 08:40:48;;;;;;;9.45;3.80;;;18.50;50.50;;;;;;5132765;28;20180;-71
2022/03/30 08:43:13;;;;;;;5.55;3.85;;;18.50;50.60;;;;;;5133106;28;20388;-73
2022/03/30 08:45:40;;;;;;;6.72;3.95;;;18.50;50.60;;;;;;5133193;27;20202;-74
2022/03/30 08:48:05;;;;;;;4.22;3.28;;;18.60;50.10;;;;;;5132604;28;20172;-72
2022/03/30 08:50:31;;;;;;;7.28;3.70;;;18.60;50.00;;;;;;5133156;28;20529;-72
2022/03/30 08:52:59;;;;;;;6.15;4.13;;;18.70;50.10;;;;;;5133310;28;20278;-69
2022/03/30 08:55:24;;;;;;;8.35;3.78;;;18.70;50.00;;;;;;5133072;27;20173;-70
2022/03/30 08:57:50;;;;;;;6.95;3.78;;;18.80;50.00;;;;;;5136508;27;20228;-71
2022/03/30 09:00:20;;;;;;;5.28;3.47;;;18.80;50.10;;;;;;5136564;27;20172;-72
2022/03/30 09:02:59;;;;;;;4.43;3.25;;;18.80;50.10;;;;;;5136361;27;20184;-73
2022/03/30 09:05:25;;;;;;;4.53;3.00;;;18.80;50.20;;;;;;5136879;27;20173;-71
2022/03/30 09:07:52;;;;;;;6.13;3.10;;;18.90;50.30;;;;;;5136438;27;20610;-71
2022/03/30 09:10:20;;;;;;;4.65;3.05;;;18.80;50.40;;;;;;5136415;27;20657;-71
2022/03/30 09:12:47;;;;;;;5.22;3.08;;;18.80;50.40;;;;;;5136581;27;20193;-72
2022/03/30 09:15:12;;;;;;;6.10;3.15;;;18.80;50.50;;;;;;5135189;27;20210;-72
2022/03/30 09:17:39;;;;;;;4.68;2.72;;;18.70;50.60;;;;;;5136455;27;20565;-72
2022/03/30 09:20:13;;;;;;;4.45;3.35;;;18.70;50.70;;;;;;5136302;27;20175;-72
2022/03/30 09:22:43;;;;;;;5.45;3.20;;;18.70;51.00;;;;;;5135471;27;20255;-73
2022/03/30 09:25:11;;;;;;;4.00;2.90;;;18.70;50.70;;;;;;5135710;27;20186;-72
2022/03/30 09:27:39;;;;;;;6.57;3.38;;;18.80;50.80;;;;;;5136059;27;20192;-72
2022/03/30 09:30:06;;;;;;;4.50;3.00;;;18.70;50.90;;;;;;5100912;27;20183;-71
2022/03/30 09:32:32;;;;;;;4.10;2.63;;;18.70;51.10;;;;;;5135859;27;20591;-71
2022/03/30 09:34:58;;;;;;;3.90;3.03;;;18.70;51.10;;;;;;5117229;27;20185;-70
2022/03/30 09:37:23;;;;;;;3.60;2.80;;;18.60;51.20;;;;;;5134352;27;20229;-71
2022/03/30 09:39:49;;;;;;;5.00;2.95;;;18.60;51.30;;;;;;5135978;27;20171;-73
2022/03/30 09:42:16;;;;;;;5.43;2.60;;;18.70;51.30;;;;;;5135298;27;20182;-70
2022/03/30 09:44:52;;;;;;;6.05;2.97;;;18.70;51.30;;;;;;5134890;27;20176;-72
2022/03/30 09:47:18;;;;;;;3.95;2.47;;;18.70;51.40;;;;;;5135448;27;20188;-71
2022/03/30 09:49:45;;;;;;;2.65;2.42;;;18.70;51.40;;;;;;5135653;27;20191;-71
2022/03/30 09:52:14;;;;;;;4.32;3.20;;;18.70;51.40;;;;;;5134878;27;20250;-72
2022/03/30 09:54:49;;;;;;;4.35;3.03;;;18.70;51.40;;;;;;5135852;27;20631;-72
2022/03/30 09:57:25;;;;;;;4.60;3.05;;;18.70;51.40;;;;;;5134624;27;20272;-69
2022/03/30 10:00:04;;;;;;;5.50;3.05;;;18.70;51.40;;;;;;5135846;27;20643;-71
2022/03/30 10:02:32;;;;;;;6.50;3.25;;;18.70;51.30;;;;;;5135560;27;20181;-68
2022/03/30 10:04:57;;;;;;;5.53;2.85;;;18.80;51.30;;;;;;5135193;27;20217;-68
2022/03/30 10:07:23;;;;;;;3.28;2.58;;;18.80;51.20;;;;;;5135006;27;20169;-68
2022/03/30 10:09:49;;;;;;;6.63;2.95;;;18.70;51.20;;;;;;5135895;27;20179;-68
2022/03/30 10:12:17;;;;;;;3.50;2.72;;;18.70;51.20;;;;;;5134703;27;20177;-69
2022/03/30 10:14:46;;;;;;;3.53;3.22;;;18.70;51.20;;;;;;5135695;27;20172;-68
2022/03/30 10:17:13;;;;;;;5.43;3.05;;;18.70;51.20;;;;;;5117309;27;20235;-68
2022/03/30 10:19:42;;;;;;;6.20;3.40;;;18.70;51.20;;;;;;5134961;27;20177;-68
2022/03/30 10:22:36;;;;;;;4.57;2.80;;;18.70;51.20;;;;;;5135347;27;20173;-69
2022/03/30 10:25:32;;;;;;;3.92;2.58;;;18.60;51.20;;;;;;5119876;27;20631;-68
2022/03/30 10:28:10;;;;;;;4.72;2.97;;;18.60;51.30;;;;;;5117220;27;20576;-68
2022/03/30 10:30:35;;;;;;;3.85;2.50;;;18.60;51.30;;;;;;5135395;27;20243;-75
2022/03/30 10:33:02;;;;;;;7.50;2.97;;;18.50;51.30;;;;;;5116192;27;20255;-76
2022/03/30 10:35:43;;;;;;;4.72;2.90;;;18.50;51.40;;;;;;5134857;27;20683;-74
2022/03/30 10:38:09;;;;;;;2.50;2.17;;;18.50;51.50;;;;;;5134739;27;20215;-70
2022/03/30 10:40:34;;;;;;;5.68;2.90;;;18.50;51.60;;;;;;5134771;27;20168;-72
2022/03/30 10:43:02;;;;;;;3.38;2.60;;;18.50;51.60;;;;;;5135275;27;20184;-71
2022/03/30 10:45:51;;;;;;;2.97;2.47;;;18.40;51.60;;;;;;5134735;27;20224;-72
2022/03/30 10:48:28;;;;;;;6.47;2.92;;;18.50;51.60;;;;;;5133942;27;20172;-72
2022/03/30 10:51:06;;;;;;;5.30;2.67;;;18.50;51.70;;;;;;5135111;27;20225;-72
2022/03/30 10:53:32;;;;;;;4.47;2.60;;;18.50;51.70;;;;;;5117241;27;20200;-73
2022/03/30 10:56:10;;;;;;;5.00;2.70;;;18.40;51.70;;;;;;5134522;27;20617;-72
2022/03/30 10:58:36;;;;;;;4.88;2.70;;;18.40;51.70;;;;;;5134534;27;20219;-69
2022/03/30 11:01:25;;;;;;;3.42;2.55;;;18.40;51.80;;;;;;5133898;27;20226;-71
2022/03/30 11:04:04;;;;;;;5.45;2.92;;;18.40;51.80;;;;;;5134731;27;20199;-64
2022/03/30 11:06:31;;;;;;;3.33;2.45;;;18.40;51.70;;;;;;5134070;27;20176;-68
2022/03/30 11:08:58;;;;;;;5.53;2.60;;;18.40;51.70;;;;;;5133861;27;20180;-71
2022/03/30 11:11:34;;;;;;;5.75;2.95;;;18.50;51.80;;;;;;5134033;27;20187;-73
2022/03/30 11:14:36;;;;;;;5.18;2.80;;;18.40;51.70;;;;;;5134679;27;20172;-73
2022/03/30 11:17:03;;;;;;;4.05;2.60;;;18.40;51.60;;;;;;5134350;27;20231;-72
2022/03/30 11:19:46;;;;;;;7.30;3.20;;;18.40;51.70;;;;;;5133269;27;20184;-73
2022/03/30 11:22:16;;;;;;;5.35;2.55;;;18.30;51.80;;;;;;5133682;27;20271;-73
2022/03/30 11:24:43;;;;;;;4.28;2.47;;;18.40;51.80;;;;;;5134232;27;20169;-71
2022/03/30 11:27:08;;;;;;;5.45;2.47;;;18.40;51.90;;;;;;5138027;27;20624;-70
2022/03/30 11:29:53;;;;;;;4.05;2.67;;;18.40;51.70;;;;;;5148612;27;20184;-70
2022/03/30 11:32:18;;;;;;;3.22;2.70;;;18.40;51.80;;;;;;5133242;27;20186;-69
2022/03/30 11:34:47;;;;;;;4.35;2.60;;;18.40;51.70;;;;;;5138932;27;20160;-68
2022/03/30 11:37:13;;;;;;;5.70;2.80;;;18.50;51.60;;;;;;5153811;27;20235;-69
2022/03/30 11:39:39;;;;;;;3.25;2.53;;;18.50;51.50;;;;;;5136342;27;20259;-70
2022/03/30 11:42:04;;;;;;;4.40;2.70;;;18.50;51.60;;;;;;5154808;27;20168;-69
2022/03/30 11:47:18;;;;;;;4.22;2.38;;;18.40;51.50;;;;;;5133654;27;20175;-70
2022/03/30 11:49:50;;;;;;;3.97;2.67;;;18.40;51.50;;;;;;5133240;27;20172;-70
2022/03/30 11:52:16;;;;;;;5.03;2.50;;;18.40;51.60;;;;;;5133694;27;20172;-71
2022/03/30 11:54:49;;;;;;;5.35;2.20;;;18.30;51.50;;;;;;5133709;27;20176;-70
2022/03/30 11:57:15;;;;;;;2.80;2.13;;;18.30;51.60;;;;;;5132312;27;20235;-69
2022/03/30 11:59:40;;;;;;;3.05;2.30;;;18.30;51.60;;;;;;5133897;27;20184;-70
2022/03/30 12:02:07;;;;;;;3.88;2.53;;;18.30;51.70;;;;;;5153282;27;20192;-69
2022/03/30 12:04:33;;;;;;;2.80;2.45;;;18.30;51.70;;;;;;5135391;27;20168;-69
2022/03/30 12:06:58;;;;;;;4.00;2.08;;;18.30;51.70;;;;;;5154436;27;20172;-69
2022/03/30 12:09:24;;;;;;;2.20;2.00;;;18.30;51.70;;;;;;5154001;27;20679;-71
2022/03/30 12:11:50;;;;;;;2.60;2.22;;;18.30;51.70;;;;;;5153497;27;20176;-71
2022/03/30 12:14:25;;;;;;;3.28;2.00;;;18.30;51.70;;;;;;5154097;27;20167;-72
2022/03/30 12:16:54;;;;;;;5.03;2.55;;;18.30;51.60;;;;;;5154201;27;20179;-72
2022/03/30 12:19:19;;;;;;;3.08;2.03;;;18.40;51.50;;;;;;5134524;27;20184;-70
2022/03/30 12:21:45;;;;;;;4.00;2.10;;;18.40;51.50;;;;;;5154241;27;20187;-71
2022/03/30 12:24:11;;;;;;;3.22;2.10;;;18.50;51.40;;;;;;5153712;27;20633;-72
2022/03/30 12:26:37;;;;;;;2.55;2.05;;;18.50;51.30;;;;;;5153419;27;20252;-72
2022/03/30 12:29:07;;;;;;;4.85;2.10;;;18.60;51.30;;;;;;5154487;27;20626;-70
2022/03/30 12:31:37;;;;;;;3.13;1.95;;;18.50;51.20;;;;;;5158751;27;20168;-70
2022/03/30 12:34:17;;;;;;;3.75;1.92;;;18.50;51.30;;;;;;5156436;27;20211;-68
2022/03/30 12:36:43;;;;;;;2.28;1.92;;;18.50;51.30;;;;;;5137404;27;20178;-69
2022/03/30 12:39:20;;;;;;;2.60;2.08;;;18.40;51.40;;;;;;5136386;27;20212;-68
2022/03/30 12:41:56;;;;;;;2.90;1.90;;;18.40;51.50;;;;;;5137530;27;20545;-69
2022/03/30 12:44:21;;;;;;;2.97;2.08;;;18.40;51.50;;;;;;5137123;27;20216;-70
2022/03/30 12:46:47;;;;;;;4.22;2.58;;;18.30;51.50;;;;;;5136867;27;20215;-69
2022/03/30 12:49:12;;;;;;;3.33;2.22;;;18.30;51.50;;;;;;5136957;27;20290;-69
2022/03/30 12:51:39;;;;;;;4.30;2.53;;;18.30;51.50;;;;;;5137317;27;20171;-69
2022/03/30 12:54:07;;;;;;;2.05;1.77;;;18.30;51.50;;;;;;5136497;27;20176;-70
2022/03/30 12:56:33;;;;;;;3.15;2.33;;;18.30;51.50;;;;;;5137116;27;20220;-70
2022/03/30 12:59:00;;;;;;;3.65;2.10;;;18.40;51.40;;;;;;5137058;27;20212;-69
2022/03/30 13:01:29;;;;;;;2.03;1.88;;;18.40;51.30;;;;;;5136038;27;20231;-69